Time;durP1;ratioP1;P1;durP2;ratioP2;P2;SDS_P1;SDS_P2;PMS_P1;PMS_P2;Temp;Humidity;BMP_temperature;BMP_pressure;BME280_temperature;BME280_humidity;BME280_pressure;Samples;Min_cycle;Max_cycle;Signal;HPM_P1;HPM_P2
2024/03/07 11:18:22;;;;;;;14.48;10.13;;;8.40;90.20;;;;;;6249997;22;20463;-67
2024/03/07 11:21:40;;;;;;;12.43;8.82;;;8.50;90.80;;;;;;6252377;22;20020;-68
2024/03/07 11:24:28;;;;;;;13.00;9.55;;;8.60;90.60;;;;;;6271227;22;20018;-67
2024/03/07 11:27:14;;;;;;;17.45;10.65;;;8.60;89.90;;;;;;6271204;22;20334;-67
2024/03/07 11:30:08;;;;;;;16.05;10.45;;;8.60;89.30;;;;;;6274180;22;20007;-67
2024/03/07 11:32:54;;;;;;;14.82;10.13;;;8.60;89.30;;;;;;6268307;22;20008;-67
2024/03/07 11:35:48;;;;;;;13.48;9.82;;;8.60;87.70;;;;;;6250857;22;20008;-68
2024/03/07 11:38:34;;;;;;;16.55;10.55;;;8.70;88.70;;;;;;6271572;22;20011;-73
2024/03/07 11:41:21;;;;;;;14.00;9.45;;;8.70;89.10;;;;;;6272843;22;20439;-68
2024/03/07 11:44:12;;;;;;;15.23;9.63;;;8.70;88.60;;;;;;6267905;22;20061;-78
2024/03/07 11:46:58;;;;;;;16.92;9.82;;;8.70;88.40;;;;;;6273724;22;20022;-68
2024/03/07 11:49:48;;;;;;;14.40;8.98;;;8.70;88.40;;;;;;6274181;22;20014;-74
2024/03/07 11:52:36;;;;;;;15.77;10.80;;;8.80;88.20;;;;;;6271756;22;20026;-74
2024/03/07 11:55:23;;;;;;;15.98;10.20;;;8.80;88.20;;;;;;6273262;22;20011;-75
2024/03/07 11:58:13;;;;;;;13.90;10.27;;;8.70;86.70;;;;;;6272504;22;20043;-75
2024/03/07 12:00:59;;;;;;;16.23;9.20;;;8.70;87.10;;;;;;6275645;22;20011;-66
2024/03/07 12:03:50;;;;;;;14.68;9.70;;;8.70;86.70;;;;;;6267731;22;20045;-70
2024/03/07 12:06:37;;;;;;;13.25;9.68;;;8.60;86.00;;;;;;6272846;22;20024;-70
2024/03/07 12:09:23;;;;;;;13.70;10.02;;;8.60;86.60;;;;;;6270379;22;20398;-70
2024/03/07 12:12:09;;;;;;;14.32;9.88;;;8.60;85.90;;;;;;6270539;22;20046;-70
2024/03/07 12:14:56;;;;;;;14.93;10.75;;;8.70;86.40;;;;;;6272561;22;20008;-69
2024/03/07 12:17:43;;;;;;;17.73;9.55;;;8.70;86.20;;;;;;6273854;22;20379;-70
2024/03/07 12:20:33;;;;;;;17.42;10.20;;;8.70;85.30;;;;;;6273067;22;20090;-68
2024/03/07 12:23:19;;;;;;;13.73;9.95;;;8.60;85.40;;;;;;6268394;22;20011;-71
2024/03/07 12:26:06;;;;;;;18.13;10.25;;;8.70;85.60;;;;;;6272358;22;20015;-71
2024/03/07 12:28:53;;;;;;;14.68;9.85;;;8.70;85.20;;;;;;6267661;22;20436;-70
2024/03/07 12:31:39;;;;;;;15.20;10.35;;;8.70;85.20;;;;;;6271709;22;20011;-71
2024/03/07 12:34:30;;;;;;;16.08;10.68;;;8.80;85.50;;;;;;6274937;22;20007;-69
2024/03/07 12:37:16;;;;;;;19.65;12.18;;;8.80;84.60;;;;;;6250762;22;20011;-69
2024/03/07 12:40:23;;;;;;;15.32;9.90;;;8.80;83.30;;;;;;6251352;22;20031;-70
2024/03/07 12:43:19;;;;;;;15.80;10.95;;;8.80;83.30;;;;;;6251115;22;20008;-70
2024/03/07 12:46:05;;;;;;;13.02;10.32;;;8.80;83.30;;;;;;6272790;22;20058;-70
2024/03/07 12:48:51;;;;;;;17.73;10.88;;;8.80;82.90;;;;;;6272700;22;20332;-69
2024/03/07 12:51:37;;;;;;;16.88;10.18;;;8.80;81.40;;;;;;6272509;22;20019;-69
2024/03/07 12:54:24;;;;;;;16.25;10.95;;;8.80;80.80;;;;;;6273597;22;20390;-69
2024/03/07 12:57:11;;;;;;;18.50;11.95;;;8.80;81.30;;;;;;6271157;22;20050;-69
2024/03/07 12:59:57;;;;;;;18.77;11.60;;;8.80;79.70;;;;;;6271441;22;20332;-69
2024/03/07 13:02:44;;;;;;;16.35;10.70;;;8.80;79.80;;;;;;6275425;22;20091;-70
2024/03/07 13:05:31;;;;;;;17.50;11.63;;;8.80;79.30;;;;;;6272144;22;20015;-70
2024/03/07 13:08:17;;;;;;;18.08;13.15;;;8.80;79.30;;;;;;6274467;22;20012;-70
2024/03/07 13:11:03;;;;;;;18.80;12.88;;;8.90;79.20;;;;;;6271971;22;20273;-69
2024/03/07 13:13:49;;;;;;;19.67;12.32;;;8.90;79.00;;;;;;6273845;22;20122;-69
2024/03/07 13:16:35;;;;;;;19.50;13.32;;;8.90;79.70;;;;;;6273920;22;20011;-68
2024/03/07 13:19:21;;;;;;;18.42;12.05;;;8.90;78.90;;;;;;6244011;22;20031;-68
2024/03/07 13:22:07;;;;;;;17.30;11.15;;;8.90;79.90;;;;;;6274538;22;20014;-69
2024/03/07 13:24:52;;;;;;;17.05;10.32;;;9.00;78.70;;;;;;6250425;22;20016;-69
2024/03/07 13:27:57;;;;;;;15.02;10.70;;;9.00;78.50;;;;;;6272940;22;20008;-68
2024/03/07 13:30:46;;;;;;;14.77;10.02;;;9.00;77.30;;;;;;6273389;22;20115;-68
2024/03/07 13:33:33;;;;;;;14.85;9.73;;;9.10;77.80;;;;;;6274267;22;20011;-68
2024/03/07 13:36:27;;;;;;;13.98;9.82;;;9.10;76.80;;;;;;6273300;22;20007;-68
2024/03/07 13:39:16;;;;;;;19.27;11.25;;;9.20;77.20;;;;;;6272001;22;20003;-68
2024/03/07 13:42:04;;;;;;;14.23;9.95;;;9.20;76.70;;;;;;6273217;22;20046;-69
2024/03/07 13:44:51;;;;;;;14.75;10.40;;;9.30;77.10;;;;;;6272758;22;20058;-68
2024/03/07 13:47:37;;;;;;;14.30;9.60;;;9.40;76.30;;;;;;6271567;22;20094;-69
2024/03/07 13:50:28;;;;;;;14.40;9.68;;;9.40;76.70;;;;;;6273736;22;20019;-69
2024/03/07 13:53:18;;;;;;;14.48;9.68;;;9.50;76.80;;;;;;6272742;22;20007;-69
2024/03/07 13:56:13;;;;;;;15.88;10.27;;;9.60;76.10;;;;;;6271739;22;20435;-69
2024/03/07 13:59:04;;;;;;;15.30;9.48;;;9.50;75.20;;;;;;6273350;22;20012;-68
2024/03/07 14:02:10;;;;;;;15.77;11.07;;;9.50;75.20;;;;;;6273302;22;20090;-69
2024/03/07 14:05:33;;;;;;;16.80;10.43;;;9.50;75.10;;;;;;6272847;22;20015;-68
2024/03/07 14:08:48;;;;;;;13.90;10.13;;;9.50;74.80;;;;;;6272748;22;20011;-68
2024/03/07 14:12:08;;;;;;;15.05;9.95;;;9.50;75.20;;;;;;6274265;22;20077;-68
2024/03/07 14:15:19;;;;;;;15.07;10.23;;;9.60;75.90;;;;;;6272565;22;20086;-69
2024/03/07 14:18:56;;;;;;;19.30;11.13;;;9.60;74.80;;;;;;6283048;22;20098;-68
2024/03/07 14:21:49;;;;;;;16.80;9.82;;;9.70;75.50;;;;;;6269807;22;20170;-68
2024/03/07 14:24:57;;;;;;;15.75;10.32;;;9.80;75.70;;;;;;6250669;22;20014;-68
2024/03/07 14:28:10;;;;;;;14.75;9.93;;;9.90;75.80;;;;;;6273543;22;20517;-69
2024/03/07 14:30:57;;;;;;;15.18;10.63;;;9.90;75.80;;;;;;6271619;22;20078;-68
2024/03/07 14:34:10;;;;;;;17.85;10.57;;;10.00;76.00;;;;;;6272728;22;20454;-69
2024/03/07 14:37:03;;;;;;;17.23;11.50;;;10.00;75.50;;;;;;6274534;22;20443;-68
2024/03/07 14:39:53;;;;;;;14.68;10.75;;;10.00;74.70;;;;;;6275396;22;20432;-69
2024/03/07 14:42:46;;;;;;;14.63;10.50;;;10.00;75.10;;;;;;6275504;22;20018;-68
2024/03/07 14:45:39;;;;;;;17.52;10.77;;;10.00;74.50;;;;;;6275708;22;20019;-68
2024/03/07 14:48:25;;;;;;;13.85;9.90;;;10.10;74.50;;;;;;6276801;22;20008;-69
2024/03/07 14:51:13;;;;;;;14.60;10.07;;;10.10;74.60;;;;;;6273306;22;20420;-69
2024/03/07 14:54:00;;;;;;;16.35;11.93;;;10.10;74.60;;;;;;6275614;22;20062;-68
2024/03/07 14:56:47;;;;;;;17.00;11.50;;;10.10;74.80;;;;;;6275999;22;20018;-69
2024/03/07 14:59:33;;;;;;;16.90;11.05;;;10.10;74.20;;;;;;6275639;22;20018;-69
2024/03/07 15:02:20;;;;;;;16.25;10.68;;;10.00;74.60;;;;;;6251916;22;20091;-68
2024/03/07 15:05:08;;;;;;;16.90;10.98;;;10.00;74.50;;;;;;6274567;22;20026;-69
2024/03/07 15:07:55;;;;;;;16.25;11.23;;;10.10;74.70;;;;;;6275768;22;20090;-68
2024/03/07 15:10:51;;;;;;;15.90;11.35;;;10.10;74.90;;;;;;6275147;22;20447;-70
2024/03/07 15:13:37;;;;;;;17.48;11.13;;;10.20;75.10;;;;;;6274693;22;20157;-69
2024/03/07 15:16:24;;;;;;;15.85;9.80;;;10.30;74.50;;;;;;6254201;22;20032;-70
2024/03/07 15:19:09;;;;;;;16.58;10.25;;;10.20;74.60;;;;;;6274061;22;20023;-69
2024/03/07 15:21:55;;;;;;;19.60;11.23;;;10.30;74.80;;;;;;6274279;22;20046;-68
2024/03/07 15:24:42;;;;;;;17.05;11.30;;;10.20;74.20;;;;;;6274078;22;20016;-68
2024/03/07 15:27:28;;;;;;;16.50;11.18;;;10.20;74.60;;;;;;6272525;22;20444;-68
2024/03/07 15:30:18;;;;;;;16.40;11.10;;;10.30;74.70;;;;;;6275344;22;20046;-69
2024/03/07 15:33:05;;;;;;;15.40;10.85;;;10.20;74.60;;;;;;6274326;22;20007;-69
2024/03/07 15:35:52;;;;;;;15.80;9.82;;;10.20;74.80;;;;;;6273826;22;20011;-69
2024/03/07 15:38:38;;;;;;;15.15;9.45;;;10.20;74.50;;;;;;6251635;22;20503;-69
2024/03/07 15:41:24;;;;;;;16.38;10.57;;;10.10;73.90;;;;;;6272329;22;20007;-68
2024/03/07 15:44:11;;;;;;;15.15;9.60;;;10.00;73.30;;;;;;6254191;22;20039;-68
2024/03/07 15:46:57;;;;;;;16.65;9.98;;;9.90;73.10;;;;;;6274744;22;20015;-69
2024/03/07 15:49:43;;;;;;;15.25;9.70;;;9.90;73.60;;;;;;6274452;22;20400;-69
2024/03/07 15:52:30;;;;;;;13.35;9.27;;;9.90;73.50;;;;;;6273515;22;20505;-68
2024/03/07 15:55:16;;;;;;;13.68;9.45;;;9.90;73.40;;;;;;6273289;22;20082;-69
2024/03/07 15:58:06;;;;;;;12.07;9.13;;;9.90;73.60;;;;;;6274268;22;20352;-68
2024/03/07 16:00:52;;;;;;;16.15;10.18;;;9.90;73.80;;;;;;6273851;22;20011;-69
2024/03/07 16:03:38;;;;;;;17.00;9.57;;;9.90;73.70;;;;;;6274971;22;20099;-69
2024/03/07 16:06:24;;;;;;;15.80;10.45;;;9.90;73.60;;;;;;6272780;22;20095;-69
2024/03/07 16:09:13;;;;;;;15.40;9.93;;;9.90;73.80;;;;;;6272548;22;20004;-68
2024/03/07 16:11:59;;;;;;;17.23;10.57;;;9.90;73.90;;;;;;6273065;22;20031;-68
2024/03/07 16:14:45;;;;;;;13.07;9.68;;;9.80;73.80;;;;;;6274173;22;20039;-68
2024/03/07 16:17:31;;;;;;;14.98;9.75;;;9.80;74.40;;;;;;6273438;22;20344;-68
2024/03/07 16:20:17;;;;;;;16.42;10.60;;;9.70;73.70;;;;;;6275467;22;20027;-68
2024/03/07 16:23:06;;;;;;;15.93;10.60;;;9.60;73.90;;;;;;6251877;22;20031;-68
2024/03/07 16:25:52;;;;;;;17.45;10.65;;;9.60;73.90;;;;;;6273394;22;20517;-68
2024/03/07 16:28:38;;;;;;;16.17;9.70;;;9.40;74.00;;;;;;6274019;22;20014;-67
2024/03/07 16:31:27;;;;;;;16.85;10.48;;;9.40;74.20;;;;;;6273624;22;20054;-68
2024/03/07 16:34:13;;;;;;;18.33;11.30;;;9.40;74.30;;;;;;6271678;22;20015;-69
2024/03/07 16:36:59;;;;;;;14.50;9.30;;;9.30;74.40;;;;;;6273517;22;20034;-67
2024/03/07 16:39:45;;;;;;;16.58;9.82;;;9.30;74.60;;;;;;6273003;22;20351;-68
2024/03/07 16:42:31;;;;;;;16.25;11.40;;;9.30;74.80;;;;;;6274610;22;20011;-68
2024/03/07 16:45:19;;;;;;;14.77;10.25;;;9.30;75.50;;;;;;6271183;22;20455;-69
2024/03/07 16:48:09;;;;;;;16.30;10.18;;;9.30;75.10;;;;;;6273908;22;20424;-69
2024/03/07 16:50:58;;;;;;;17.75;11.50;;;9.20;75.20;;;;;;6273510;22;20015;-68
2024/03/07 16:53:44;;;;;;;14.93;10.65;;;9.10;75.30;;;;;;6251915;22;20003;-69
2024/03/07 16:56:36;;;;;;;17.55;10.07;;;9.20;75.50;;;;;;6271369;22;20011;-69
2024/03/07 16:59:22;;;;;;;18.27;11.05;;;9.10;75.70;;;;;;6251774;22;20008;-69
2024/03/07 17:02:09;;;;;;;17.42;10.70;;;9.10;75.80;;;;;;6274411;22;20039;-68
2024/03/07 17:04:58;;;;;;;13.77;10.00;;;9.00;75.90;;;;;;6272445;22;20376;-68
2024/03/07 17:07:44;;;;;;;16.48;11.18;;;9.00;76.10;;;;;;6252463;22;20424;-69
2024/03/07 17:10:38;;;;;;;14.45;10.05;;;9.00;76.30;;;;;;6270867;22;20555;-68
2024/03/07 17:13:25;;;;;;;14.98;10.07;;;8.90;76.30;;;;;;6247974;22;20395;-68
2024/03/07 17:16:11;;;;;;;15.10;11.13;;;8.90;76.40;;;;;;6272149;22;20007;-68
2024/03/07 17:18:57;;;;;;;15.55;10.82;;;8.80;76.50;;;;;;6270694;22;20033;-68
2024/03/07 17:21:46;;;;;;;16.85;11.05;;;8.80;76.60;;;;;;6274857;22;20467;-68
2024/03/07 17:24:32;;;;;;;16.48;10.77;;;8.80;76.80;;;;;;6251634;22;20046;-68
2024/03/07 17:27:18;;;;;;;15.30;10.25;;;8.70;76.90;;;;;;6284060;22;20462;-69
2024/03/07 17:30:08;;;;;;;17.40;10.48;;;8.70;77.10;;;;;;6292164;22;20008;-69
2024/03/07 17:32:56;;;;;;;19.52;11.65;;;8.70;77.20;;;;;;6288518;22;20018;-77
2024/03/07 17:35:44;;;;;;;14.85;10.85;;;8.60;77.20;;;;;;6289965;22;20054;-73
2024/03/07 17:38:32;;;;;;;19.42;10.65;;;8.60;77.30;;;;;;6276598;22;20011;-75
2024/03/07 17:41:18;;;;;;;17.23;11.38;;;8.60;77.60;;;;;;6268344;22;20451;-76
2024/03/07 17:44:10;;;;;;;15.52;10.52;;;8.50;77.60;;;;;;6273465;22;20339;-76
2024/03/07 17:46:57;;;;;;;18.27;11.32;;;8.50;77.70;;;;;;6275465;22;20027;-77
2024/03/07 17:49:43;;;;;;;18.50;12.32;;;8.40;77.80;;;;;;6272392;22;20011;-77
2024/03/07 17:52:29;;;;;;;17.05;11.38;;;8.40;77.90;;;;;;6274114;22;20011;-75
2024/03/07 17:55:16;;;;;;;18.95;12.00;;;8.30;78.10;;;;;;6274403;22;20038;-75
2024/03/07 17:58:05;;;;;;;15.75;11.18;;;8.30;78.20;;;;;;6276918;22;20008;-76
2024/03/07 18:00:52;;;;;;;16.98;11.02;;;8.30;78.30;;;;;;6271056;22;20003;-76
2024/03/07 18:03:38;;;;;;;17.77;11.55;;;8.20;78.40;;;;;;6250258;22;20383;-74
2024/03/07 18:06:24;;;;;;;16.02;11.00;;;8.20;78.50;;;;;;6273181;22;20016;-73
2024/03/07 18:09:27;;;;;;;23.33;14.55;;;8.20;78.70;;;;;;6275140;22;20011;-74
2024/03/07 18:12:14;;;;;;;19.23;12.63;;;8.20;78.90;;;;;;6271488;22;20030;-75
2024/03/07 18:15:00;;;;;;;18.83;11.45;;;8.10;78.90;;;;;;6250803;22;20015;-74
2024/03/07 18:17:53;;;;;;;17.05;11.07;;;8.10;79.10;;;;;;6273852;22;20012;-74
2024/03/07 18:20:40;;;;;;;19.83;11.93;;;8.10;79.10;;;;;;6272613;22;20094;-75
2024/03/07 18:23:28;;;;;;;20.60;11.63;;;8.10;79.20;;;;;;6273256;22;20054;-74
2024/03/07 18:26:15;;;;;;;19.52;13.15;;;8.10;79.30;;;;;;6270807;22;20101;-74
2024/03/07 18:29:03;;;;;;;17.85;12.07;;;8.00;79.30;;;;;;6272849;22;20069;-74
2024/03/07 18:31:49;;;;;;;17.48;12.35;;;8.00;79.40;;;;;;6274178;22;20363;-74
2024/03/07 18:34:37;;;;;;;17.80;11.52;;;8.00;79.40;;;;;;6272272;22;20026;-74
2024/03/07 18:37:22;;;;;;;18.48;11.38;;;7.90;79.50;;;;;;6272486;22;20012;-74
2024/03/07 18:40:16;;;;;;;16.05;11.23;;;7.90;79.60;;;;;;6272884;22;20043;-75
2024/03/07 18:43:06;;;;;;;18.08;12.30;;;7.80;79.60;;;;;;6272680;22;20008;-73
2024/03/07 18:45:52;;;;;;;20.35;12.05;;;7.80;80.20;;;;;;6272278;22;20019;-74
2024/03/07 18:48:40;;;;;;;17.23;11.23;;;7.80;79.80;;;;;;6271587;22;20019;-75
2024/03/07 18:51:26;;;;;;;18.70;11.38;;;7.70;79.90;;;;;;6272186;22;20061;-75
2024/03/07 18:54:13;;;;;;;16.85;11.45;;;7.80;80.00;;;;;;6272957;22;20008;-75
2024/03/07 18:57:07;;;;;;;19.40;12.30;;;7.60;80.00;;;;;;6270467;22;20447;-75
2024/03/07 18:59:53;;;;;;;14.73;10.40;;;7.60;80.10;;;;;;6272553;22;20011;-75
2024/03/07 19:02:40;;;;;;;18.67;11.57;;;7.60;80.20;;;;;;6272640;22;20440;-75
2024/03/07 19:05:33;;;;;;;18.15;12.48;;;7.60;80.30;;;;;;6272554;22;20347;-74
2024/03/07 19:11:06;;;;;;;17.58;11.80;;;7.50;80.50;;;;;;6273689;22;20016;-75
2024/03/07 19:13:57;;;;;;;17.40;12.23;;;7.50;80.60;;;;;;6273761;22;20066;-75
2024/03/07 19:16:49;;;;;;;18.55;12.10;;;7.40;80.60;;;;;;6271413;22;20313;-74
2024/03/07 19:19:35;;;;;;;16.45;12.02;;;7.40;80.80;;;;;;6273546;22;20411;-76
2024/03/07 19:22:20;;;;;;;17.00;10.68;;;7.40;80.90;;;;;;6272548;22;20329;-75
2024/03/07 19:25:07;;;;;;;21.08;13.25;;;7.30;81.00;;;;;;6273928;22;20041;-76
2024/03/07 19:27:53;;;;;;;23.67;16.05;;;7.30;81.10;;;;;;6275290;22;20328;-76
2024/03/07 19:30:46;;;;;;;24.45;13.43;;;7.30;81.30;;;;;;6274389;22;20019;-75
2024/03/07 19:33:34;;;;;;;21.05;13.15;;;7.20;81.40;;;;;;6252315;22;20007;-75
2024/03/07 19:36:21;;;;;;;19.05;12.45;;;7.20;81.70;;;;;;6250772;22;20008;-77
2024/03/07 19:39:11;;;;;;;19.50;12.13;;;7.10;81.80;;;;;;6273927;22;20730;-67
2024/03/07 19:41:57;;;;;;;21.65;12.95;;;7.10;81.90;;;;;;6272243;22;20066;-66
2024/03/07 19:44:44;;;;;;;18.30;10.85;;;7.10;82.00;;;;;;6275295;22;20398;-66
2024/03/07 19:47:30;;;;;;;20.88;12.25;;;7.10;82.20;;;;;;6246308;22;20020;-66
2024/03/07 19:50:16;;;;;;;19.60;11.25;;;7.00;82.30;;;;;;6268713;22;20111;-66
2024/03/07 19:53:03;;;;;;;21.02;12.38;;;7.00;82.30;;;;;;6273920;22;20019;-67
2024/03/07 19:55:49;;;;;;;16.63;11.80;;;7.00;82.50;;;;;;6274710;22;20065;-65
2024/03/07 19:58:35;;;;;;;20.02;13.05;;;7.00;82.60;;;;;;6273981;22;20091;-66
2024/03/07 20:01:22;;;;;;;20.55;11.32;;;7.00;82.60;;;;;;6273343;22;20081;-66
2024/03/07 20:04:09;;;;;;;19.13;12.68;;;6.90;82.70;;;;;;6273794;22;20065;-66
2024/03/07 20:06:55;;;;;;;17.00;11.60;;;6.90;82.80;;;;;;6273734;22;20055;-65
2024/03/07 20:09:42;;;;;;;18.13;11.82;;;6.90;82.90;;;;;;6273942;22;20011;-65
2024/03/07 20:12:28;;;;;;;23.65;12.90;;;6.90;83.00;;;;;;6273375;22;20019;-66
2024/03/07 20:15:14;;;;;;;19.55;12.18;;;6.80;83.10;;;;;;6274216;22;20057;-66
2024/03/07 20:18:00;;;;;;;20.17;12.98;;;6.80;83.20;;;;;;6274672;22;20042;-66
2024/03/07 20:20:49;;;;;;;20.20;12.07;;;6.80;83.40;;;;;;6274518;22;20019;-66
2024/03/07 20:23:35;;;;;;;20.02;12.85;;;6.80;83.50;;;;;;6273496;22;20065;-65
2024/03/07 20:26:21;;;;;;;21.83;13.88;;;6.80;83.60;;;;;;6270863;22;20023;-66
2024/03/07 20:29:07;;;;;;;20.38;13.85;;;6.80;83.70;;;;;;6270467;22;20091;-65
2024/03/07 20:31:53;;;;;;;20.25;13.88;;;6.70;83.80;;;;;;6252638;22;20460;-65
2024/03/07 20:34:41;;;;;;;22.17;13.63;;;6.70;83.90;;;;;;6271919;22;20004;-66
2024/03/07 20:37:28;;;;;;;19.98;13.48;;;6.70;84.00;;;;;;6271973;22;20030;-65
2024/03/07 20:40:20;;;;;;;22.77;14.50;;;6.70;84.10;;;;;;6272011;22;20348;-66
2024/03/07 20:43:07;;;;;;;20.88;14.00;;;6.60;84.20;;;;;;6251073;22;20451;-66
2024/03/07 20:45:56;;;;;;;24.38;14.95;;;6.60;84.20;;;;;;6269874;22;20020;-67
2024/03/07 20:48:44;;;;;;;19.88;13.07;;;6.60;84.30;;;;;;6272651;22;20008;-66
2024/03/07 20:51:36;;;;;;;19.60;13.23;;;6.50;84.40;;;;;;6281345;22;19991;-74
2024/03/07 20:54:22;;;;;;;20.85;13.10;;;6.50;84.60;;;;;;6299925;22;19996;-74
2024/03/07 20:57:08;;;;;;;21.17;12.95;;;6.50;84.70;;;;;;6276669;22;20023;-75
2024/03/07 20:59:54;;;;;;;20.80;12.80;;;6.50;84.80;;;;;;6295061;22;20004;-76
2024/03/07 21:02:44;;;;;;;21.52;14.07;;;6.40;84.90;;;;;;6298282;22;20035;-66
2024/03/07 21:05:34;;;;;;;20.50;13.30;;;6.40;85.00;;;;;;6274070;22;20019;-64
2024/03/07 21:08:20;;;;;;;20.85;12.68;;;6.40;85.10;;;;;;6271669;22;20439;-63
2024/03/07 21:11:08;;;;;;;20.70;13.85;;;6.30;85.20;;;;;;6274114;22;20061;-64
2024/03/07 21:13:55;;;;;;;24.60;13.68;;;6.40;85.40;;;;;;6274752;22;20510;-63
2024/03/07 21:16:45;;;;;;;19.35;13.02;;;6.30;85.40;;;;;;6272254;22;20090;-63
2024/03/07 21:19:30;;;;;;;19.10;13.43;;;6.30;85.50;;;;;;6271793;22;20023;-63
2024/03/07 21:22:16;;;;;;;23.95;13.38;;;6.30;85.70;;;;;;6273434;22;20085;-66
2024/03/07 21:25:04;;;;;;;20.60;13.10;;;6.20;85.80;;;;;;6275159;22;20368;-66
2024/03/07 21:27:50;;;;;;;21.92;14.98;;;6.20;85.80;;;;;;6271778;22;20031;-66
2024/03/07 21:30:36;;;;;;;21.77;13.00;;;6.20;85.90;;;;;;6273832;22;20008;-66
2024/03/07 21:33:22;;;;;;;20.90;13.65;;;6.10;86.00;;;;;;6275140;22;20004;-66
2024/03/07 21:36:09;;;;;;;18.55;11.68;;;6.10;86.10;;;;;;6274156;22;20015;-65
2024/03/07 21:38:57;;;;;;;18.77;13.50;;;6.10;86.20;;;;;;6271740;22;20086;-65
2024/03/07 21:41:42;;;;;;;26.15;13.90;;;6.10;86.30;;;;;;6274706;22;20467;-65
2024/03/07 21:44:29;;;;;;;22.30;13.82;;;6.10;86.40;;;;;;6273468;22;20451;-65
2024/03/07 21:47:15;;;;;;;20.40;13.43;;;6.00;86.50;;;;;;6272036;22;20054;-66
2024/03/07 21:50:03;;;;;;;19.77;13.32;;;6.00;86.60;;;;;;6273307;22;20423;-65
2024/03/07 21:52:48;;;;;;;20.92;14.13;;;6.00;86.70;;;;;;6273735;22;20007;-66
2024/03/07 21:55:36;;;;;;;22.30;13.80;;;6.00;86.80;;;;;;6272558;22;20031;-67
2024/03/07 21:58:24;;;;;;;21.85;14.57;;;6.00;86.90;;;;;;6273645;22;20422;-65
2024/03/07 22:01:11;;;;;;;18.77;13.20;;;6.00;87.00;;;;;;6271417;22;20483;-66
2024/03/07 22:03:57;;;;;;;19.45;13.23;;;6.00;87.10;;;;;;6272777;22;20412;-66
2024/03/07 22:06:44;;;;;;;21.02;14.10;;;6.00;87.20;;;;;;6270728;22;20329;-65
2024/03/07 22:09:31;;;;;;;20.38;14.13;;;6.00;87.30;;;;;;6273442;22;20012;-66
2024/03/07 22:12:17;;;;;;;23.48;15.20;;;5.90;87.30;;;;;;6270731;22;20007;-65
2024/03/07 22:15:06;;;;;;;20.52;12.68;;;5.90;87.40;;;;;;6253241;22;20012;-65
2024/03/07 22:17:53;;;;;;;24.90;15.02;;;5.90;87.40;;;;;;6273480;22;20505;-65
2024/03/07 22:20:39;;;;;;;31.13;16.77;;;5.80;87.50;;;;;;6273111;22;20023;-65
2024/03/07 22:23:25;;;;;;;24.17;14.20;;;5.80;87.60;;;;;;6272496;22;20428;-66
2024/03/07 22:26:11;;;;;;;23.90;16.30;;;5.80;87.70;;;;;;6273357;22;20016;-65
2024/03/07 22:28:58;;;;;;;25.65;15.50;;;5.70;87.70;;;;;;6274197;22;20004;-65
2024/03/07 22:31:44;;;;;;;20.30;13.45;;;5.70;87.80;;;;;;6272604;22;20008;-65
2024/03/07 22:34:31;;;;;;;23.98;15.15;;;5.70;87.80;;;;;;6273814;22;20008;-64
2024/03/07 22:37:17;;;;;;;22.35;14.45;;;5.70;87.90;;;;;;6272986;22;20011;-65
2024/03/07 22:40:04;;;;;;;25.48;15.43;;;5.60;87.90;;;;;;6272173;22;20007;-66
2024/03/07 22:42:50;;;;;;;24.23;16.30;;;5.60;88.10;;;;;;6274431;22;20069;-65
2024/03/07 22:45:37;;;;;;;25.73;14.95;;;5.60;88.20;;;;;;6273497;22;20047;-65
2024/03/07 22:48:23;;;;;;;26.42;16.35;;;5.60;88.20;;;;;;6271606;22;20007;-65
2024/03/07 22:51:10;;;;;;;21.42;14.63;;;5.60;88.40;;;;;;6273192;22;20432;-65
2024/03/07 22:53:56;;;;;;;21.67;14.40;;;5.50;88.50;;;;;;6273056;22;20008;-65
2024/03/07 22:56:43;;;;;;;24.63;14.73;;;5.50;88.50;;;;;;6272378;22;20015;-65
2024/03/07 22:59:29;;;;;;;25.58;14.98;;;5.50;88.60;;;;;;6274743;22;20086;-65
2024/03/07 23:02:15;;;;;;;23.35;15.25;;;5.50;88.80;;;;;;6275040;22;20317;-66
2024/03/07 23:05:01;;;;;;;24.50;14.65;;;5.50;88.90;;;;;;6274354;22;20031;-66
2024/03/07 23:07:47;;;;;;;24.98;15.93;;;5.40;88.90;;;;;;6274847;22;20015;-66
2024/03/07 23:10:33;;;;;;;23.65;15.52;;;5.40;89.00;;;;;;6275524;22;20004;-66
2024/03/07 23:13:19;;;;;;;24.50;16.15;;;5.40;89.10;;;;;;6273891;22;20015;-65
2024/03/07 23:16:05;;;;;;;23.63;15.52;;;5.40;89.20;;;;;;6274617;22;20092;-65
2024/03/07 23:18:53;;;;;;;31.52;16.55;;;5.40;89.20;;;;;;6273821;22;20023;-65
2024/03/07 23:21:39;;;;;;;26.17;15.50;;;5.40;89.30;;;;;;6273655;22;20035;-66
2024/03/07 23:24:25;;;;;;;26.63;16.50;;;5.30;89.30;;;;;;6273270;22;20018;-66
2024/03/07 23:27:11;;;;;;;28.13;16.42;;;5.30;89.40;;;;;;6274516;22;20061;-66
2024/03/07 23:29:58;;;;;;;27.95;16.38;;;5.30;89.60;;;;;;6276803;22;20091;-66
2024/03/07 23:32:45;;;;;;;25.00;15.52;;;5.30;89.70;;;;;;6275554;22;20018;-66
2024/03/07 23:35:31;;;;;;;29.13;16.38;;;5.20;89.80;;;;;;6274979;22;20007;-66
2024/03/07 23:38:17;;;;;;;28.10;17.02;;;5.20;89.90;;;;;;6273930;22;20011;-66
2024/03/07 23:41:03;;;;;;;25.65;15.82;;;5.20;90.00;;;;;;6274298;22;20380;-66
2024/03/07 23:43:50;;;;;;;28.30;18.25;;;5.20;90.00;;;;;;6275670;22;20011;-66
2024/03/07 23:46:36;;;;;;;21.95;14.43;;;5.20;90.00;;;;;;6275617;22;20100;-66
2024/03/07 23:49:24;;;;;;;24.73;15.77;;;5.10;90.10;;;;;;6274041;22;20019;-66
2024/03/07 23:52:10;;;;;;;22.73;14.93;;;5.10;90.10;;;;;;6272776;22;20069;-66
2024/03/07 23:54:56;;;;;;;24.55;14.57;;;5.10;90.10;;;;;;6275051;22;20419;-66
2024/03/07 23:57:42;;;;;;;27.02;15.25;;;5.10;90.10;;;;;;6275374;22;20007;-65
